createdAt,value
2023-05-17T00:02:08.165Z,6.04
2023-05-17T00:04:35.102Z,6.21
2023-05-17T00:07:02.034Z,5.97
2023-05-17T00:09:29.078Z,6.08
2023-05-17T00:11:58.745Z,6.02
2023-05-17T00:14:25.905Z,6.06
2023-05-17T00:16:52.942Z,5.92
2023-05-17T00:19:20.150Z,6.12
2023-05-17T00:21:47.174Z,6.11
2023-05-17T00:24:14.092Z,5.68
2023-05-17T00:26:41.128Z,5.67
2023-05-17T00:29:08.157Z,5.63
2023-05-17T00:31:35.613Z,5.54
2023-05-17T00:34:02.545Z,5.55
2023-05-17T00:36:29.473Z,5.61
2023-05-17T00:38:56.354Z,5.47
2023-05-17T00:41:23.263Z,5.30
2023-05-17T00:43:50.201Z,5.64
2023-05-17T00:46:17.076Z,5.63
2023-05-17T00:48:44.516Z,5.67
2023-05-17T00:51:12.489Z,5.53
2023-05-17T00:53:39.741Z,5.52
2023-05-17T00:56:07.078Z,5.39
2023-05-17T00:58:34.290Z,5.41
2023-05-17T01:01:02.078Z,5.63
2023-05-17T01:03:29.243Z,5.48
2023-05-17T01:05:56.264Z,5.43
2023-05-17T01:08:23.192Z,5.09
2023-05-17T01:11:11.372Z,5.23
2023-05-17T01:13:59.173Z,5.14
2023-05-17T01:16:33.052Z,4.91
2023-05-17T01:19:17.350Z,5.08
2023-05-17T01:22:15.880Z,5.16
2023-05-17T01:24:47.798Z,5.10
2023-05-17T01:27:15.965Z,5.12
2023-05-17T01:29:44.994Z,4.92
2023-05-17T01:32:13.852Z,5.24
2023-05-17T01:34:41.872Z,5.25
2023-05-17T01:37:08.768Z,4.93
2023-05-17T01:39:36.604Z,4.81
2023-05-17T01:42:10.197Z,4.98
2023-05-17T01:44:50.700Z,5.19
2023-05-17T01:47:33.137Z,4.89
2023-05-17T01:50:01.131Z,5.16
2023-05-17T01:52:54.124Z,5.27
2023-05-17T01:55:33.085Z,5.26
2023-05-17T01:58:04.141Z,5.04
2023-05-17T02:00:31.798Z,5.13
2023-05-17T02:02:58.782Z,5.29
2023-05-17T02:05:25.787Z,5.06
2023-05-17T02:07:52.688Z,4.57
2023-05-17T02:10:19.603Z,4.47
2023-05-17T02:12:46.489Z,4.77
2023-05-17T02:15:14.015Z,4.73
2023-05-17T02:17:41.240Z,4.95
2023-05-17T02:20:09.779Z,5.07
2023-05-17T02:22:36.735Z,5.08
2023-05-17T02:25:03.712Z,4.82
2023-05-17T02:27:31.055Z,4.97
2023-05-17T02:29:59.716Z,4.69
2023-05-17T02:32:27.487Z,4.67
2023-05-17T02:34:55.070Z,4.57
2023-05-17T02:37:23.512Z,4.39
2023-05-17T02:39:50.481Z,4.72
2023-05-17T02:42:17.768Z,4.57
2023-05-17T02:44:44.789Z,4.20
2023-05-17T02:47:11.712Z,4.12
2023-05-17T02:49:38.932Z,3.98
2023-05-17T02:52:06.147Z,4.01
2023-05-17T02:54:34.028Z,4.30
2023-05-17T02:57:01.485Z,4.17
2023-05-17T02:59:28.419Z,4.01
2023-05-17T03:01:55.421Z,4.27
2023-05-17T03:04:22.496Z,4.23
2023-05-17T03:06:51.079Z,3.93
2023-05-17T03:09:19.077Z,4.06
2023-05-17T03:11:48.596Z,4.11
2023-05-17T03:14:21.107Z,4.11
2023-05-17T03:16:49.470Z,3.94
2023-05-17T03:19:17.094Z,4.27
2023-05-17T03:21:44.971Z,4.18
2023-05-17T03:24:12.623Z,4.12
2023-05-17T03:26:40.345Z,4.12
2023-05-17T03:29:09.292Z,4.04
2023-05-17T03:31:36.894Z,3.91
2023-05-17T03:34:03.893Z,3.70
2023-05-17T03:36:31.661Z,3.73
2023-05-17T03:38:58.696Z,3.52
2023-05-17T03:41:25.959Z,3.83
2023-05-17T03:43:52.985Z,3.39
2023-05-17T03:46:21.295Z,3.72
2023-05-17T03:48:49.307Z,3.62
2023-05-17T03:51:17.342Z,3.71
2023-05-17T03:53:44.507Z,3.74
2023-05-17T03:56:11.470Z,3.67
2023-05-17T03:58:38.649Z,3.81
2023-05-17T04:01:06.061Z,3.73
2023-05-17T04:03:33.893Z,3.27
2023-05-17T04:06:06.488Z,3.49
2023-05-17T04:08:35.319Z,3.68
2023-05-17T04:11:10.738Z,3.75
2023-05-17T04:13:38.109Z,3.66
2023-05-17T04:16:05.444Z,3.52
2023-05-17T04:18:36.394Z,3.94
2023-05-17T04:21:04.322Z,3.99
2023-05-17T04:23:33.624Z,4.15
2023-05-17T04:26:00.668Z,3.99
2023-05-17T04:28:29.740Z,4.04
2023-05-17T04:30:57.014Z,4.37
2023-05-17T04:33:24.996Z,4.06
2023-05-17T04:35:55.042Z,3.75
2023-05-17T04:38:23.894Z,4.02
2023-05-17T04:40:51.644Z,3.89
2023-05-17T04:43:18.985Z,4.08
2023-05-17T04:45:46.899Z,4.09
2023-05-17T04:48:16.625Z,4.12
2023-05-17T04:50:47.430Z,3.92
2023-05-17T04:53:16.028Z,3.98
2023-05-17T04:55:43.178Z,4.14
2023-05-17T04:58:10.392Z,4.26
2023-05-17T05:00:38.327Z,4.19
2023-05-17T05:03:07.809Z,4.48
2023-05-17T05:05:35.918Z,4.45
2023-05-17T05:08:02.931Z,4.39
2023-05-17T05:10:30.731Z,4.86
2023-05-17T05:12:58.541Z,4.59
2023-05-17T05:15:25.627Z,5.04
2023-05-17T05:17:56.724Z,5.05
2023-05-17T05:20:25.863Z,5.20
2023-05-17T05:22:57.633Z,5.49
2023-05-17T05:25:24.970Z,5.12
2023-05-17T05:27:51.963Z,5.53
2023-05-17T05:30:22.662Z,5.35
2023-05-17T05:32:53.260Z,5.53
2023-05-17T05:35:20.760Z,5.72
2023-05-17T05:37:47.692Z,5.71
2023-05-17T05:40:15.346Z,6.04
2023-05-17T05:42:42.508Z,6.31
2023-05-17T05:45:10.692Z,6.11
2023-05-17T05:47:38.476Z,6.77
2023-05-17T05:50:07.034Z,6.98
2023-05-17T05:52:35.391Z,6.65
2023-05-17T05:55:02.352Z,6.81
2023-05-17T05:57:29.477Z,6.81
2023-05-17T05:59:56.367Z,6.61
2023-05-17T06:02:24.177Z,6.65
2023-05-17T06:04:51.280Z,6.56
2023-05-17T06:07:18.584Z,6.61
2023-05-17T06:09:45.504Z,6.75
2023-05-17T06:12:12.454Z,6.75
2023-05-17T06:14:39.310Z,6.71
2023-05-17T06:17:06.874Z,6.65
2023-05-17T06:19:34.003Z,6.59
2023-05-17T06:22:01.012Z,6.81
2023-05-17T06:24:27.900Z,6.72
2023-05-17T06:26:54.738Z,6.83
2023-05-17T06:29:21.678Z,6.95
2023-05-17T06:31:48.554Z,6.86
2023-05-17T06:34:15.454Z,6.93
2023-05-17T06:36:42.562Z,6.97
2023-05-17T06:39:09.445Z,7.22
2023-05-17T06:41:36.395Z,6.99
2023-05-17T06:44:03.301Z,7.08
2023-05-17T06:46:30.185Z,7.00
2023-05-17T06:48:57.289Z,6.97
2023-05-17T06:51:24.312Z,7.06
2023-05-17T06:53:51.174Z,7.26
2023-05-17T06:56:18.063Z,7.24
2023-05-17T06:58:44.955Z,6.96
2023-05-17T07:01:13.127Z,6.95
2023-05-17T07:03:40.190Z,6.97
2023-05-17T07:06:07.526Z,6.92
2023-05-17T07:08:34.385Z,7.13
2023-05-17T07:11:01.574Z,7.15
2023-05-17T07:13:28.465Z,6.88
2023-05-17T07:15:55.370Z,6.97
2023-05-17T07:18:22.315Z,7.11
2023-05-17T07:20:49.214Z,7.33
2023-05-17T07:23:18.637Z,7.13
2023-05-17T07:25:46.550Z,7.04
2023-05-17T07:28:13.417Z,7.07
2023-05-17T07:30:40.318Z,7.24
2023-05-17T07:33:07.275Z,7.46
2023-05-17T07:35:34.243Z,7.43
2023-05-17T07:38:01.207Z,7.56
2023-05-17T07:40:28.067Z,7.31
2023-05-17T07:42:54.975Z,7.50
2023-05-17T07:45:21.891Z,7.51
2023-05-17T07:47:48.826Z,7.65
2023-05-17T07:50:15.758Z,7.83
2023-05-17T07:52:42.736Z,8.13
2023-05-17T07:55:10.232Z,8.45
2023-05-17T07:57:37.228Z,8.79
2023-05-17T08:00:04.613Z,8.27
2023-05-17T08:02:39.028Z,8.63
2023-05-17T08:05:06.452Z,9.51
2023-05-17T08:07:33.384Z,9.67
2023-05-17T08:10:00.258Z,10.30
2023-05-17T08:12:27.141Z,9.85
2023-05-17T08:14:54.005Z,9.47
2023-05-17T08:17:20.906Z,9.05
2023-05-17T08:19:47.828Z,8.78
2023-05-17T08:22:15.964Z,8.85
2023-05-17T08:24:45.132Z,9.13
2023-05-17T08:27:14.840Z,8.56
2023-05-17T08:29:41.760Z,8.89
2023-05-17T08:32:08.651Z,8.61
2023-05-17T08:34:35.764Z,9.00
2023-05-17T08:37:02.799Z,8.68
2023-05-17T08:39:29.692Z,8.49
2023-05-17T08:41:59.852Z,8.80
2023-05-17T08:44:28.691Z,8.48
2023-05-17T08:46:56.887Z,8.27
2023-05-17T08:49:26.045Z,8.27
2023-05-17T08:51:54.904Z,8.22
2023-05-17T08:54:22.942Z,7.91
2023-05-17T08:56:54.067Z,8.25
2023-05-17T08:59:22.184Z,7.98
2023-05-17T09:01:51.688Z,8.07
2023-05-17T09:04:19.017Z,8.25
2023-05-17T09:06:46.062Z,8.16
2023-05-17T09:09:13.011Z,8.34
2023-05-17T09:11:40.019Z,8.50
2023-05-17T09:14:07.851Z,8.76
2023-05-17T09:16:37.518Z,9.13
2023-05-17T09:19:06.534Z,8.81
2023-05-17T09:21:34.447Z,8.30
2023-05-17T09:26:42.328Z,8.66
2023-05-17T09:29:13.921Z,8.87
2023-05-17T09:31:42.135Z,8.91
2023-05-17T09:34:09.706Z,8.94
2023-05-17T09:36:38.020Z,9.06
2023-05-17T09:39:10.814Z,8.97
2023-05-17T09:41:47.369Z,8.91
2023-05-17T09:44:15.587Z,9.08
2023-05-17T09:46:48.052Z,9.13
2023-05-17T09:49:17.297Z,9.30
2023-05-17T09:51:47.750Z,9.06
2023-05-17T09:54:15.033Z,8.74
2023-05-17T09:56:42.209Z,8.88
2023-05-17T09:59:16.921Z,9.08
2023-05-17T10:01:45.785Z,9.04
2023-05-17T10:04:13.956Z,8.85
2023-05-17T10:06:49.865Z,9.04
2023-05-17T10:09:21.902Z,8.93
2023-05-17T10:11:50.889Z,9.22
2023-05-17T10:14:23.684Z,8.64
2023-05-17T10:16:52.460Z,9.08
2023-05-17T10:19:21.491Z,8.95
2023-05-17T10:21:50.528Z,8.96
2023-05-17T10:24:17.835Z,8.92
2023-05-17T10:26:45.721Z,8.97
2023-05-17T10:29:12.914Z,8.84
2023-05-17T10:31:43.699Z,9.06
2023-05-17T10:34:12.111Z,9.19
2023-05-17T10:36:40.834Z,9.24
2023-05-17T10:39:10.536Z,9.40
2023-05-17T10:41:42.515Z,9.11
2023-05-17T10:44:14.102Z,9.29
2023-05-17T10:46:41.249Z,9.37
2023-05-17T10:49:08.824Z,9.39
2023-05-17T10:51:38.027Z,9.53
2023-05-17T10:54:10.011Z,9.26
2023-05-17T10:57:06.459Z,9.42
2023-05-17T10:59:35.763Z,9.39
2023-05-17T11:02:10.327Z,9.45
2023-05-17T11:04:42.733Z,9.42
2023-05-17T11:07:29.703Z,9.32
2023-05-17T11:10:11.819Z,9.41
2023-05-17T11:12:43.986Z,9.54
2023-05-17T11:15:12.624Z,9.82
2023-05-17T11:17:54.904Z,9.57
2023-05-17T11:20:25.077Z,9.91
2023-05-17T11:23:00.693Z,9.86
2023-05-17T11:25:38.286Z,10.15
2023-05-17T11:28:23.478Z,9.68
2023-05-17T11:30:54.095Z,9.61
2023-05-17T11:33:38.738Z,9.84
2023-05-17T11:36:13.659Z,9.92
2023-05-17T11:38:40.594Z,10.27
2023-05-17T11:41:26.960Z,10.01
2023-05-17T11:43:54.659Z,9.95
2023-05-17T11:46:24.286Z,9.73
2023-05-17T11:48:52.815Z,10.08
2023-05-17T11:51:23.649Z,9.92
2023-05-17T11:53:55.678Z,9.86
2023-05-17T11:56:35.738Z,9.79
2023-05-17T11:59:10.459Z,9.58
2023-05-17T12:01:47.588Z,9.68
2023-05-17T12:04:14.981Z,9.58
2023-05-17T12:06:42.747Z,9.40
2023-05-17T12:09:11.028Z,9.45
2023-05-17T12:11:41.065Z,9.66
2023-05-17T12:14:08.123Z,9.30
2023-05-17T12:16:37.185Z,9.77
2023-05-17T12:19:04.329Z,9.71
2023-05-17T12:21:31.432Z,9.69
2023-05-17T12:23:58.354Z,9.78
2023-05-17T12:26:25.340Z,9.83
2023-05-17T12:28:57.785Z,9.93
2023-05-17T12:31:36.869Z,9.85
2023-05-17T12:34:06.231Z,10.10
2023-05-17T12:36:34.237Z,10.28
2023-05-17T12:39:01.816Z,10.15
2023-05-17T12:41:30.114Z,10.25
2023-05-17T12:44:13.852Z,10.02
2023-05-17T12:46:43.288Z,10.34
2023-05-17T12:49:12.075Z,10.14
2023-05-17T12:51:44.491Z,10.38
2023-05-17T12:54:16.522Z,10.14
2023-05-17T12:56:46.818Z,10.05
2023-05-17T12:59:18.517Z,10.02
2023-05-17T13:01:46.801Z,10.02
2023-05-17T13:04:15.024Z,10.14
2023-05-17T13:06:50.121Z,10.24
2023-05-17T13:09:18.841Z,9.84
2023-05-17T13:11:52.423Z,9.83
2023-05-17T13:14:38.946Z,9.97
2023-05-17T13:17:08.615Z,9.72
2023-05-17T13:19:36.595Z,9.83
2023-05-17T13:22:05.326Z,10.00
2023-05-17T13:24:35.505Z,10.02
2023-05-17T13:27:03.199Z,10.32
2023-05-17T13:29:38.867Z,10.60
2023-05-17T13:32:08.666Z,11.00
2023-05-17T13:34:36.283Z,11.14
2023-05-17T13:37:04.456Z,11.06
2023-05-17T13:39:31.431Z,10.76
2023-05-17T13:41:59.240Z,11.13
2023-05-17T13:44:26.682Z,11.25
2023-05-17T13:46:53.579Z,10.96
2023-05-17T13:49:21.148Z,10.92
2023-05-17T13:51:48.197Z,11.04
2023-05-17T13:54:15.168Z,10.87
2023-05-17T13:56:42.075Z,11.00
2023-05-17T13:59:09.047Z,10.99
2023-05-17T14:01:35.969Z,11.04
2023-05-17T14:04:02.998Z,11.00
2023-05-17T14:06:30.033Z,11.24
2023-05-17T14:08:59.421Z,11.06
2023-05-17T14:11:26.608Z,10.84
2023-05-17T14:13:53.568Z,10.59
2023-05-17T14:16:22.458Z,12.02
2023-05-17T14:18:50.134Z,11.81
2023-05-17T14:21:17.376Z,11.48
2023-05-17T14:23:44.310Z,11.34
2023-05-17T14:26:12.036Z,11.28
2023-05-17T14:28:39.373Z,11.70
2023-05-17T14:31:07.509Z,11.93
2023-05-17T14:33:34.676Z,11.75
2023-05-17T14:36:01.804Z,11.73
2023-05-17T14:38:28.684Z,11.67
2023-05-17T14:40:55.927Z,11.91
2023-05-17T14:43:23.589Z,11.82
2023-05-17T14:45:53.377Z,11.77
2023-05-17T14:48:20.706Z,11.62
2023-05-17T14:50:47.757Z,11.35
2023-05-17T14:53:14.726Z,11.32
2023-05-17T14:55:42.130Z,11.19
2023-05-17T14:58:09.244Z,11.40
2023-05-17T15:00:36.346Z,10.77
2023-05-17T15:03:03.410Z,10.84
2023-05-17T15:05:30.693Z,11.24
2023-05-17T15:07:58.124Z,11.87
2023-05-17T15:10:25.035Z,12.43
2023-05-17T15:12:52.645Z,12.99
2023-05-17T15:15:22.315Z,12.55
2023-05-17T15:17:49.278Z,12.55
2023-05-17T15:20:16.351Z,12.94
2023-05-17T15:22:43.319Z,13.12
2023-05-17T15:25:10.616Z,12.66
2023-05-17T15:27:37.766Z,12.68
2023-05-17T15:30:05.159Z,13.17
2023-05-17T15:32:34.036Z,13.25
2023-05-17T15:35:01.196Z,13.18
2023-05-17T15:37:28.486Z,12.99
2023-05-17T15:39:55.390Z,12.94
2023-05-17T15:42:22.304Z,13.22
2023-05-17T15:44:49.179Z,12.78
2023-05-17T15:47:16.300Z,12.86
2023-05-17T15:49:43.230Z,12.94
2023-05-17T15:52:10.329Z,12.99
2023-05-17T15:54:37.237Z,13.05
2023-05-17T15:57:04.402Z,13.29
2023-05-17T15:59:31.329Z,13.29
2023-05-17T16:01:58.211Z,13.07
2023-05-17T16:04:25.176Z,12.73
2023-05-17T16:06:52.313Z,12.73
2023-05-17T16:09:19.395Z,12.58
2023-05-17T16:11:46.578Z,12.41
2023-05-17T16:14:13.756Z,12.06
2023-05-17T16:16:40.765Z,12.12
2023-05-17T16:19:10.121Z,12.28
2023-05-17T16:21:37.350Z,12.03
2023-05-17T16:24:06.663Z,12.11
2023-05-17T16:26:35.648Z,11.81
2023-05-17T16:29:02.489Z,12.05
2023-05-17T16:31:29.480Z,11.79
2023-05-17T16:33:56.640Z,11.77
2023-05-17T16:36:24.645Z,11.68
2023-05-17T16:38:52.743Z,11.56
2023-05-17T16:41:19.700Z,11.59
2023-05-17T16:43:48.012Z,11.68
2023-05-17T16:46:14.899Z,11.59
2023-05-17T16:48:42.030Z,11.49
2023-05-17T16:51:08.983Z,11.49
2023-05-17T16:53:35.925Z,11.58
2023-05-17T16:56:02.963Z,11.70
2023-05-17T16:58:30.111Z,11.71
2023-05-17T17:00:57.614Z,11.69
2023-05-17T17:03:24.728Z,11.70
2023-05-17T17:05:51.763Z,11.58
2023-05-17T17:08:18.739Z,11.50
2023-05-17T17:10:45.786Z,11.49
2023-05-17T17:13:12.698Z,11.45
2023-05-17T17:15:39.852Z,11.15
2023-05-17T17:18:07.234Z,11.26
2023-05-17T17:20:34.149Z,11.41
2023-05-17T17:23:01.169Z,11.16
2023-05-17T17:25:28.299Z,11.15
2023-05-17T17:27:55.366Z,10.95
2023-05-17T17:30:22.427Z,11.10
2023-05-17T17:32:52.303Z,11.01
2023-05-17T17:35:19.452Z,10.90
2023-05-17T17:37:46.464Z,10.97
2023-05-17T17:40:33.661Z,10.87
2023-05-17T17:43:00.580Z,10.74
2023-05-17T17:45:27.576Z,10.82
2023-05-17T17:47:54.512Z,10.79
2023-05-17T17:50:22.063Z,10.79
2023-05-17T17:52:50.728Z,10.56
2023-05-17T17:55:17.644Z,10.61
2023-05-17T17:57:44.589Z,10.49
2023-05-17T18:00:13.258Z,10.50
2023-05-17T18:02:40.241Z,10.20
2023-05-17T18:05:07.519Z,10.27
2023-05-17T18:07:34.565Z,10.25
2023-05-17T18:10:02.186Z,10.01
2023-05-17T18:12:29.588Z,10.16
2023-05-17T18:14:56.527Z,10.11
2023-05-17T18:17:23.552Z,10.06
2023-05-17T18:19:50.607Z,9.96
2023-05-17T18:22:17.712Z,9.73
2023-05-17T18:24:45.732Z,9.67
2023-05-17T18:27:15.492Z,9.62
2023-05-17T18:29:42.983Z,9.74
2023-05-17T18:32:10.119Z,9.48
2023-05-17T18:34:37.227Z,9.45
2023-05-17T18:37:05.149Z,9.45
2023-05-17T18:39:32.055Z,9.35
2023-05-17T18:41:59.395Z,9.20
2023-05-17T18:44:26.454Z,9.22
2023-05-17T18:46:54.227Z,9.17
2023-05-17T18:49:21.623Z,8.92
2023-05-17T18:51:48.602Z,9.03
2023-05-17T18:54:15.610Z,8.92
2023-05-17T18:56:42.497Z,8.90
2023-05-17T18:59:09.599Z,8.85
2023-05-17T19:01:37.158Z,8.80
2023-05-17T19:04:04.400Z,8.74
2023-05-17T19:06:32.032Z,8.72
2023-05-17T19:08:59.846Z,8.63
2023-05-17T19:11:28.878Z,8.46
2023-05-17T19:13:56.240Z,8.53
2023-05-17T19:16:23.177Z,8.46
2023-05-17T19:18:50.455Z,8.34
2023-05-17T19:21:17.687Z,8.42
2023-05-17T19:23:44.902Z,8.34
2023-05-17T19:26:12.144Z,8.37
2023-05-17T19:28:40.181Z,8.34
2023-05-17T19:31:08.569Z,8.12
2023-05-17T19:33:37.885Z,8.06
2023-05-17T19:36:04.960Z,7.99
2023-05-17T19:38:33.567Z,7.96
2023-05-17T19:41:01.747Z,8.10
2023-05-17T19:43:28.826Z,7.92
2023-05-17T19:45:55.985Z,7.91
2023-05-17T19:48:24.445Z,7.81
2023-05-17T19:50:51.747Z,7.70
2023-05-17T19:53:18.775Z,7.78
2023-05-17T19:55:46.003Z,7.81
2023-05-17T19:58:12.887Z,7.51
2023-05-17T20:00:39.864Z,7.66
2023-05-17T20:03:06.889Z,7.78
2023-05-17T20:05:34.104Z,7.72
2023-05-17T20:08:02.841Z,7.56
2023-05-17T20:10:32.672Z,7.67
2023-05-17T20:12:59.916Z,7.69
2023-05-17T20:15:26.979Z,7.56
2023-05-17T20:17:54.028Z,7.36
2023-05-17T20:20:21.013Z,7.02
2023-05-17T20:22:48.498Z,7.07
2023-05-17T20:25:15.447Z,7.17
2023-05-17T20:27:42.391Z,7.34
2023-05-17T20:30:09.679Z,7.19
2023-05-17T20:32:36.816Z,7.20
2023-05-17T20:35:03.902Z,7.02
2023-05-17T20:37:30.975Z,6.90
2023-05-17T20:40:00.472Z,6.80
2023-05-17T20:42:28.435Z,6.79
2023-05-17T20:44:55.832Z,6.92
2023-05-17T20:47:23.085Z,6.81
2023-05-17T20:49:50.545Z,6.66
2023-05-17T20:52:27.756Z,6.49
2023-05-17T20:54:58.614Z,6.46
2023-05-17T20:57:26.013Z,6.61
2023-05-17T20:59:53.234Z,6.35
2023-05-17T21:02:22.652Z,6.33
2023-05-17T21:04:49.624Z,6.43
2023-05-17T21:07:17.677Z,6.15
2023-05-17T21:09:44.612Z,5.76
2023-05-17T21:12:11.670Z,6.11
2023-05-17T21:14:38.588Z,5.72
2023-05-17T21:17:05.731Z,5.61
2023-05-17T21:19:32.827Z,5.72
2023-05-17T21:21:59.797Z,5.63
2023-05-17T21:24:26.735Z,5.68
2023-05-17T21:26:53.620Z,5.61
2023-05-17T21:29:20.669Z,5.45
2023-05-17T21:31:47.635Z,5.51
2023-05-17T21:34:14.562Z,5.23
2023-05-17T21:36:41.537Z,5.42
2023-05-17T21:39:08.413Z,5.33
2023-05-17T21:41:35.441Z,5.49
2023-05-17T21:44:02.391Z,5.26
2023-05-17T21:46:29.348Z,5.24
2023-05-17T21:48:56.306Z,5.42
2023-05-17T21:51:23.296Z,5.59
2023-05-17T21:53:53.007Z,5.44
2023-05-17T21:56:19.955Z,5.41
2023-05-17T21:58:46.870Z,5.68
2023-05-17T22:01:13.970Z,5.53
2023-05-17T22:03:41.077Z,5.63
2023-05-17T22:06:08.069Z,5.39
2023-05-17T22:08:35.068Z,5.55
2023-05-17T22:11:02.681Z,5.43
2023-05-17T22:13:32.901Z,5.46
2023-05-17T22:15:59.910Z,5.55
2023-05-17T22:18:32.269Z,5.38
2023-05-17T22:20:59.615Z,5.09
2023-05-17T22:23:26.769Z,5.12
2023-05-17T22:25:53.737Z,5.48
2023-05-17T22:28:20.639Z,5.10
2023-05-17T22:30:48.825Z,5.15
2023-05-17T22:33:15.802Z,5.08
2023-05-17T22:35:42.652Z,5.17
2023-05-17T22:38:09.645Z,5.08
2023-05-17T22:40:36.647Z,5.07
2023-05-17T22:43:03.595Z,5.08
2023-05-17T22:45:33.504Z,4.60
2023-05-17T22:48:03.209Z,5.12
2023-05-17T22:50:34.775Z,5.08
2023-05-17T22:53:01.777Z,5.09
2023-05-17T22:55:29.002Z,5.12
2023-05-17T22:57:56.612Z,4.80
2023-05-17T23:00:24.399Z,5.11
2023-05-17T23:02:51.389Z,4.73
2023-05-17T23:05:18.747Z,4.86
2023-05-17T23:07:47.631Z,4.83
2023-05-17T23:10:15.674Z,4.91
2023-05-17T23:12:42.669Z,4.86
2023-05-17T23:15:10.686Z,4.66
2023-05-17T23:17:39.195Z,4.86
2023-05-17T23:20:13.228Z,4.83
2023-05-17T23:22:40.294Z,4.66
2023-05-17T23:25:07.585Z,4.88
2023-05-17T23:27:35.589Z,4.64
2023-05-17T23:30:03.347Z,4.61
2023-05-17T23:32:34.176Z,4.75
2023-05-17T23:35:05.104Z,4.72
2023-05-17T23:37:33.736Z,4.50
2023-05-17T23:40:00.639Z,4.35
2023-05-17T23:42:29.323Z,4.28
2023-05-17T23:44:56.280Z,4.37
2023-05-17T23:47:23.364Z,4.31
2023-05-17T23:49:50.358Z,4.34
2023-05-17T23:52:19.307Z,4.28
2023-05-17T23:54:47.103Z,4.38
2023-05-17T23:57:14.332Z,4.36
2023-05-17T23:59:41.269Z,4.27
